Terminal Aerodrome Forecast
Issued by NWS

Home | Current Version | Previous Version | Text Only | Print | Product List | Glossary On
Versions: 1 2 3 4 5 6 7 8 9 10 11 12 13 14 15 16 17 18 19 20
000
FTUS43 KICT 290900 AAB
TAFHUT
TAF AMD
KHUT 290942Z 2910/3006 27008KT P6SM SCT050 BKN100
     FM291500 22007KT P6SM BKN120
     FM300000 15008KT P6SM BKN060=

USA.gov is the U.S. government's official web portal to all federal, state and local government web resources and services.